createdAt,value
2023-02-27T00:00:23.936Z,89.16
2023-02-27T00:02:52.114Z,89.11
2023-02-27T00:05:19.443Z,89.22
2023-02-27T00:07:46.010Z,89.36
2023-02-27T00:10:13.942Z,88.96
2023-02-27T00:12:40.948Z,89.09
2023-02-27T00:15:09.867Z,89.33
2023-02-27T00:17:37.016Z,89.19
2023-02-27T00:20:05.530Z,89.22
2023-02-27T00:22:32.141Z,89.33
2023-02-27T00:24:58.780Z,89.75
2023-02-27T00:27:25.271Z,89.54
2023-02-27T00:29:51.676Z,89.72
2023-02-27T00:32:18.240Z,89.43
2023-02-27T00:34:44.781Z,90.00
2023-02-27T00:37:11.441Z,89.82
2023-02-27T00:39:37.967Z,90.49
2023-02-27T00:42:04.500Z,90.41
2023-02-27T00:44:31.034Z,90.05
2023-02-27T00:46:57.497Z,90.49
2023-02-27T00:49:25.390Z,90.44
2023-02-27T00:51:52.438Z,90.42
2023-02-27T00:54:19.123Z,90.54
2023-02-27T00:56:45.652Z,90.59
2023-02-27T00:59:12.183Z,90.90
2023-02-27T01:01:38.744Z,90.86
2023-02-27T01:04:05.201Z,91.19
2023-02-27T01:06:34.176Z,91.38
2023-02-27T01:09:00.893Z,90.95
2023-02-27T01:11:27.648Z,91.24
2023-02-27T01:13:54.435Z,91.00
2023-02-27T01:16:21.054Z,91.24
2023-02-27T01:18:47.551Z,90.99
2023-02-27T01:21:14.030Z,91.12
2023-02-27T01:23:40.612Z,90.62
2023-02-27T01:26:07.048Z,90.72
2023-02-27T01:28:33.759Z,90.87
2023-02-27T01:31:01.480Z,90.90
2023-02-27T01:33:28.000Z,91.30
2023-02-27T01:35:54.551Z,91.43
2023-02-27T01:38:21.074Z,91.81
2023-02-27T01:40:47.506Z,91.55
2023-02-27T01:43:20.239Z,92.01
2023-02-27T01:45:48.837Z,92.27
2023-02-27T01:48:23.989Z,92.11
2023-02-27T01:50:50.339Z,92.44
2023-02-27T01:53:18.169Z,92.63
2023-02-27T01:55:46.851Z,92.39
2023-02-27T01:58:14.795Z,92.57
2023-02-27T02:00:42.357Z,92.84
2023-02-27T02:03:27.678Z,92.87
2023-02-27T02:05:56.598Z,92.84
2023-02-27T02:08:26.756Z,92.81
2023-02-27T02:10:55.415Z,92.56
2023-02-27T02:13:22.854Z,93.02
2023-02-27T02:16:15.388Z,93.19
2023-02-27T02:19:34.371Z,93.60
2023-02-27T02:22:20.846Z,93.48
2023-02-27T02:25:02.597Z,93.28
2023-02-27T02:27:55.241Z,93.27
2023-02-27T02:31:01.616Z,93.75
2023-02-27T02:34:05.701Z,93.17
2023-02-27T02:36:46.492Z,93.26
2023-02-27T02:39:26.827Z,93.44
2023-02-27T02:42:31.924Z,93.27
2023-02-27T02:45:07.785Z,93.59
2023-02-27T02:47:55.914Z,93.96
2023-02-27T02:50:44.651Z,93.56
2023-02-27T02:53:14.084Z,94.25
2023-02-27T02:55:47.012Z,94.54
2023-02-27T02:58:29.809Z,94.34
2023-02-27T03:01:09.994Z,94.51
2023-02-27T03:03:46.838Z,94.65
2023-02-27T03:06:23.844Z,94.91
2023-02-27T03:08:55.953Z,94.97
2023-02-27T03:11:27.845Z,95.73
2023-02-27T03:14:06.924Z,95.72
2023-02-27T03:16:46.238Z,95.92
2023-02-27T03:19:12.648Z,95.98
2023-02-27T03:21:46.074Z,95.70
2023-02-27T03:24:19.729Z,95.65
2023-02-27T03:26:50.207Z,95.55
2023-02-27T03:29:30.167Z,95.91
2023-02-27T03:32:02.258Z,95.68
2023-02-27T03:34:38.246Z,95.41
2023-02-27T03:37:29.359Z,95.95
2023-02-27T03:40:05.316Z,95.98
2023-02-27T03:42:36.661Z,96.06
2023-02-27T03:45:24.699Z,95.87
2023-02-27T03:47:51.624Z,96.15
2023-02-27T03:50:24.837Z,96.05
2023-02-27T03:52:51.510Z,96.14
2023-02-27T03:55:22.862Z,96.05
2023-02-27T03:57:52.681Z,96.54
2023-02-27T04:00:24.695Z,96.24
2023-02-27T04:02:54.131Z,96.58
2023-02-27T04:05:22.059Z,96.33
2023-02-27T04:08:15.961Z,96.61
2023-02-27T04:11:06.627Z,96.57
2023-02-27T04:13:55.000Z,96.69
2023-02-27T04:17:03.488Z,97.41
2023-02-27T04:19:47.119Z,97.26
2023-02-27T04:22:44.704Z,97.71
2023-02-27T04:25:47.520Z,98.15
2023-02-27T04:28:21.122Z,98.41
2023-02-27T04:31:25.004Z,98.29
2023-02-27T04:34:18.648Z,98.68
2023-02-27T04:36:49.730Z,98.46
2023-02-27T04:39:23.107Z,98.76
2023-02-27T04:41:56.919Z,98.79
2023-02-27T04:44:26.955Z,98.68
2023-02-27T04:46:56.065Z,98.65
2023-02-27T04:49:37.754Z,98.51
2023-02-27T04:52:10.876Z,98.84
2023-02-27T04:54:46.141Z,99.05
2023-02-27T04:57:20.803Z,98.70
2023-02-27T04:59:51.352Z,98.55
2023-02-27T05:02:25.315Z,99.22
2023-02-27T05:04:56.998Z,98.97
2023-02-27T05:07:35.342Z,98.86
2023-02-27T05:10:01.723Z,98.97
2023-02-27T05:12:46.969Z,99.24
2023-02-27T05:15:49.899Z,99.12
2023-02-27T05:18:19.267Z,99.63
2023-02-27T05:21:24.576Z,99.62
2023-02-27T05:24:12.126Z,99.52
2023-02-27T05:27:09.168Z,99.36
2023-02-27T05:29:45.544Z,99.34
2023-02-27T05:32:30.203Z,99.27
2023-02-27T05:35:12.006Z,99.22
2023-02-27T05:38:05.969Z,99.51
2023-02-27T05:40:37.176Z,99.54
2023-02-27T05:43:10.392Z,100.00
2023-02-27T05:45:39.249Z,100.00
2023-02-27T05:48:12.046Z,100.00
2023-02-27T05:50:40.426Z,100.00
2023-02-27T05:53:13.331Z,100.00
2023-02-27T05:55:47.147Z,100.00
2023-02-27T05:58:22.601Z,100.00
2023-02-27T06:00:54.153Z,100.00
2023-02-27T06:03:21.798Z,100.00
2023-02-27T06:05:53.059Z,100.00
2023-02-27T06:08:20.731Z,100.00
2023-02-27T06:10:47.388Z,100.00
2023-02-27T06:13:13.862Z,100.00
2023-02-27T06:15:40.356Z,100.00
2023-02-27T06:18:06.752Z,100.00
2023-02-27T06:20:33.249Z,100.00
2023-02-27T06:22:59.796Z,100.00
2023-02-27T06:25:26.573Z,100.00
2023-02-27T06:27:54.012Z,100.00
2023-02-27T06:30:20.659Z,100.00
2023-02-27T06:32:47.089Z,100.00
2023-02-27T06:35:13.611Z,100.00
2023-02-27T06:37:40.125Z,100.00
2023-02-27T06:40:11.585Z,100.00
2023-02-27T06:42:39.347Z,100.00
2023-02-27T06:45:06.752Z,100.00
2023-02-27T06:47:33.973Z,100.00
2023-02-27T06:50:00.948Z,100.00
2023-02-27T06:52:27.436Z,100.00
2023-02-27T06:54:53.997Z,100.00
2023-02-27T06:57:22.376Z,100.00
2023-02-27T06:59:49.066Z,100.00
2023-02-27T07:02:16.702Z,100.00
2023-02-27T07:04:43.765Z,99.43
2023-02-27T07:07:33.013Z,96.44
2023-02-27T07:09:57.178Z,93.62
2023-02-27T07:12:23.681Z,90.71
2023-02-27T07:14:50.127Z,87.78
2023-02-27T07:17:16.912Z,85.65
2023-02-27T07:19:43.393Z,82.85
2023-02-27T07:22:09.910Z,80.22
2023-02-27T07:24:36.828Z,78.36
2023-02-27T07:27:03.699Z,76.19
2023-02-27T07:29:30.211Z,74.10
2023-02-27T07:31:56.684Z,71.39
2023-02-27T07:34:23.183Z,69.64
2023-02-27T07:36:49.647Z,67.94
2023-02-27T07:39:16.144Z,67.48
2023-02-27T07:41:42.668Z,67.34
2023-02-27T07:44:09.249Z,67.44
2023-02-27T07:46:36.203Z,66.50
2023-02-27T07:49:03.175Z,67.35
2023-02-27T07:51:30.575Z,68.21
2023-02-27T07:53:58.545Z,67.25
2023-02-27T07:56:26.995Z,67.20
2023-02-27T07:58:53.741Z,67.53
2023-02-27T08:01:20.201Z,67.66
2023-02-27T08:03:46.721Z,66.56
2023-02-27T08:06:13.682Z,67.61
2023-02-27T08:08:40.175Z,67.46
2023-02-27T08:11:06.637Z,70.23
2023-02-27T08:14:00.039Z,73.70
2023-02-27T08:16:19.594Z,77.19
2023-02-27T08:18:46.013Z,78.08
2023-02-27T08:21:12.423Z,79.59
2023-02-27T08:23:39.339Z,80.91
2023-02-27T08:26:05.813Z,81.74
2023-02-27T08:28:32.606Z,82.22
2023-02-27T08:30:59.065Z,82.85
2023-02-27T08:33:26.090Z,82.89
2023-02-27T08:35:54.404Z,83.66
2023-02-27T08:38:21.125Z,83.76
2023-02-27T08:40:47.518Z,83.71
2023-02-27T08:43:13.916Z,84.02
2023-02-27T08:45:40.438Z,83.92
2023-02-27T08:48:07.313Z,83.85
2023-02-27T08:50:33.773Z,83.24
2023-02-27T08:53:00.538Z,83.03
2023-02-27T08:55:26.962Z,83.36
2023-02-27T08:57:53.398Z,83.45
2023-02-27T09:00:20.554Z,83.07
2023-02-27T09:02:47.143Z,83.16
2023-02-27T09:05:13.719Z,81.72
2023-02-27T09:07:41.101Z,82.97
2023-02-27T09:10:08.041Z,81.98
2023-02-27T09:12:34.676Z,81.42
2023-02-27T09:15:01.135Z,81.66
2023-02-27T09:17:27.651Z,82.02
2023-02-27T09:19:56.521Z,79.73
2023-02-27T09:22:24.379Z,78.56
2023-02-27T09:24:52.117Z,79.38
2023-02-27T09:27:19.633Z,78.17
2023-02-27T09:29:46.059Z,77.61
2023-02-27T09:32:12.546Z,78.16
2023-02-27T09:34:39.174Z,74.82
2023-02-27T09:37:05.624Z,76.20
2023-02-27T09:39:32.189Z,77.52
2023-02-27T09:42:17.085Z,76.35
2023-02-27T09:44:47.296Z,74.57
2023-02-27T09:47:24.664Z,75.42
2023-02-27T09:50:02.568Z,74.73
2023-02-27T09:52:32.516Z,74.51
2023-02-27T09:54:59.149Z,75.40
2023-02-27T09:57:39.134Z,74.12
2023-02-27T10:00:16.560Z,74.47
2023-02-27T10:02:55.674Z,73.55
2023-02-27T10:05:36.016Z,72.63
2023-02-27T10:08:40.230Z,73.33
2023-02-27T10:11:15.249Z,66.21
2023-02-27T10:13:47.847Z,63.64
2023-02-27T10:16:19.248Z,61.96
2023-02-27T10:19:00.021Z,63.52
2023-02-27T10:21:35.327Z,65.57
2023-02-27T10:24:26.365Z,63.30
2023-02-27T10:26:55.291Z,65.38
2023-02-27T10:29:27.335Z,62.33
2023-02-27T10:31:59.381Z,64.34
2023-02-27T10:34:27.914Z,64.38
2023-02-27T10:36:54.527Z,63.84
2023-02-27T10:39:22.635Z,63.36
2023-02-27T10:41:50.458Z,59.75
2023-02-27T10:44:20.631Z,63.32
2023-02-27T10:46:51.383Z,59.59
2023-02-27T10:49:20.937Z,60.32
2023-02-27T10:52:04.818Z,59.55
2023-02-27T10:54:31.730Z,62.62
2023-02-27T10:57:01.578Z,60.46
2023-02-27T10:59:40.368Z,59.74
2023-02-27T11:02:22.894Z,62.08
2023-02-27T11:05:00.260Z,60.17
2023-02-27T11:07:36.342Z,59.22
2023-02-27T11:10:15.324Z,59.66
2023-02-27T11:12:56.218Z,58.58
2023-02-27T11:15:26.761Z,58.34
2023-02-27T11:17:55.090Z,59.94
2023-02-27T11:20:37.595Z,61.03
2023-02-27T11:23:36.324Z,57.81
2023-02-27T11:26:24.927Z,53.38
2023-02-27T11:29:06.802Z,59.10
2023-02-27T11:31:35.285Z,57.44
2023-02-27T11:34:04.755Z,56.21
2023-02-27T11:36:44.988Z,55.91
2023-02-27T11:39:25.557Z,56.00
2023-02-27T11:41:53.835Z,57.49
2023-02-27T11:44:34.125Z,57.22
2023-02-27T11:47:16.708Z,56.12
2023-02-27T11:50:16.982Z,56.44
2023-02-27T11:52:57.216Z,55.27
2023-02-27T11:55:29.106Z,54.87
2023-02-27T11:58:02.354Z,54.82
2023-02-27T12:00:42.766Z,54.54
2023-02-27T12:03:22.641Z,54.91
2023-02-27T12:05:53.522Z,56.03
2023-02-27T12:08:42.845Z,55.09
2023-02-27T12:11:37.651Z,53.41
2023-02-27T12:14:33.618Z,56.67
2023-02-27T12:17:14.339Z,56.19
2023-02-27T12:20:04.217Z,54.17
2023-02-27T12:22:38.871Z,53.17
2023-02-27T12:25:20.620Z,53.73
2023-02-27T12:27:58.213Z,54.34
2023-02-27T12:30:29.378Z,55.94
2023-02-27T12:33:01.817Z,53.62
2023-02-27T12:35:31.289Z,54.76
2023-02-27T12:37:58.320Z,56.38
2023-02-27T12:40:37.153Z,55.54
2023-02-27T12:43:28.474Z,55.91
2023-02-27T12:46:22.806Z,56.14
2023-02-27T12:49:02.766Z,57.51
2023-02-27T12:51:45.853Z,57.77
2023-02-27T12:54:40.601Z,57.00
2023-02-27T12:57:41.189Z,55.25
2023-02-27T13:00:25.104Z,58.75
2023-02-27T13:03:09.830Z,55.65
2023-02-27T13:05:45.694Z,59.35
2023-02-27T13:09:08.982Z,55.80
2023-02-27T13:11:44.460Z,56.89
2023-02-27T13:14:25.938Z,57.33
2023-02-27T13:17:13.088Z,59.82
2023-02-27T13:19:55.115Z,58.44
2023-02-27T13:22:53.579Z,58.33
2023-02-27T13:25:22.142Z,59.54
2023-02-27T13:27:57.799Z,60.16
2023-02-27T13:31:00.972Z,59.85
2023-02-27T13:33:42.387Z,60.29
2023-02-27T13:36:24.617Z,59.89
2023-02-27T13:38:53.956Z,59.67
2023-02-27T13:41:20.290Z,61.33
2023-02-27T13:43:52.747Z,60.67
2023-02-27T13:46:25.283Z,60.16
2023-02-27T13:49:27.021Z,59.30
2023-02-27T13:51:58.625Z,58.49
2023-02-27T13:54:31.878Z,58.65
2023-02-27T13:57:04.532Z,55.12
2023-02-27T13:59:40.378Z,57.51
2023-02-27T14:02:09.617Z,59.06
2023-02-27T14:04:51.573Z,57.39
2023-02-27T14:07:23.642Z,57.81
2023-02-27T14:09:53.768Z,57.54
2023-02-27T14:12:44.562Z,56.78
2023-02-27T14:15:18.234Z,56.22
2023-02-27T14:17:47.606Z,56.49
2023-02-27T14:20:34.239Z,58.03
2023-02-27T14:23:20.663Z,58.50
2023-02-27T14:25:55.448Z,55.02
2023-02-27T14:28:31.042Z,56.17
2023-02-27T14:31:27.311Z,59.51
2023-02-27T14:33:56.259Z,57.81
2023-02-27T14:36:25.678Z,59.30
2023-02-27T14:38:55.990Z,57.33
2023-02-27T14:41:49.524Z,57.79
2023-02-27T14:44:22.375Z,57.71
2023-02-27T14:46:50.799Z,59.04
2023-02-27T14:49:21.139Z,59.35
2023-02-27T14:51:48.263Z,57.80
2023-02-27T14:54:21.368Z,57.28
2023-02-27T14:57:04.258Z,56.79
2023-02-27T14:59:42.408Z,58.59
2023-02-27T15:02:21.929Z,58.21
2023-02-27T15:04:54.536Z,58.88
2023-02-27T15:07:24.804Z,57.85
2023-02-27T15:09:55.267Z,58.74
2023-02-27T15:12:23.755Z,58.72
2023-02-27T15:14:53.761Z,60.03
2023-02-27T15:17:23.553Z,60.43
2023-02-27T15:19:55.431Z,59.23
2023-02-27T15:22:38.123Z,59.94
2023-02-27T15:25:07.663Z,61.02
2023-02-27T15:27:37.463Z,61.29
2023-02-27T15:30:04.998Z,63.48
2023-02-27T15:32:38.402Z,62.71
2023-02-27T15:35:17.226Z,62.69
2023-02-27T15:37:50.520Z,62.63
2023-02-27T15:40:23.666Z,61.74
2023-02-27T15:42:50.654Z,60.88
2023-02-27T15:45:24.051Z,59.01
2023-02-27T15:47:50.891Z,59.58
2023-02-27T15:50:17.295Z,60.38
2023-02-27T15:52:54.794Z,60.45
2023-02-27T15:55:29.454Z,61.77
2023-02-27T15:58:03.147Z,61.94
2023-02-27T16:00:31.620Z,62.69
2023-02-27T16:02:59.331Z,62.12
2023-02-27T16:05:36.119Z,63.32
2023-02-27T16:08:05.721Z,61.43
2023-02-27T16:10:41.581Z,61.05
2023-02-27T16:13:37.665Z,61.07
2023-02-27T16:16:20.220Z,61.51
2023-02-27T16:18:52.742Z,62.40
2023-02-27T16:21:21.865Z,62.37
2023-02-27T16:23:48.541Z,62.93
2023-02-27T16:26:30.987Z,62.61
2023-02-27T16:29:05.206Z,63.94
2023-02-27T16:31:33.836Z,64.60
2023-02-27T16:34:12.703Z,64.24
2023-02-27T16:36:40.865Z,62.99
2023-02-27T16:39:12.928Z,64.12
2023-02-27T16:41:39.334Z,65.02
2023-02-27T16:44:05.745Z,64.86
2023-02-27T16:46:32.136Z,65.11
2023-02-27T16:49:18.935Z,65.25
2023-02-27T16:51:46.388Z,65.77
2023-02-27T16:54:13.771Z,66.43
2023-02-27T16:56:40.657Z,67.61
2023-02-27T16:59:15.958Z,68.29
2023-02-27T17:01:42.713Z,68.42
2023-02-27T17:04:24.712Z,68.53
2023-02-27T17:06:52.630Z,68.42
2023-02-27T17:09:19.117Z,68.05
2023-02-27T17:11:45.864Z,68.04
2023-02-27T17:14:12.383Z,68.37
2023-02-27T17:16:38.990Z,68.72
2023-02-27T17:19:05.499Z,69.75
2023-02-27T17:21:32.812Z,70.11
2023-02-27T17:23:59.258Z,71.23
2023-02-27T17:26:27.038Z,72.33
2023-02-27T17:28:55.342Z,72.71
2023-02-27T17:31:23.103Z,72.59
2023-02-27T17:33:51.259Z,72.43
2023-02-27T17:36:18.073Z,72.38
2023-02-27T17:38:44.923Z,72.32
2023-02-27T17:41:13.549Z,72.26
2023-02-27T17:43:41.665Z,72.43
2023-02-27T17:46:10.062Z,72.41
2023-02-27T17:48:38.948Z,72.86
2023-02-27T17:51:07.465Z,72.99
2023-02-27T17:53:35.074Z,72.95
2023-02-27T17:56:02.093Z,72.97
2023-02-27T17:58:28.539Z,73.19
2023-02-27T18:00:54.928Z,73.36
2023-02-27T18:03:21.406Z,73.48
2023-02-27T18:05:51.821Z,73.81
2023-02-27T18:08:18.874Z,74.19
2023-02-27T18:10:50.113Z,74.41
2023-02-27T18:13:17.879Z,74.58
2023-02-27T18:15:45.301Z,74.86
2023-02-27T18:18:12.915Z,75.08
2023-02-27T18:20:40.428Z,75.39
2023-02-27T18:23:08.695Z,76.07
2023-02-27T18:25:36.053Z,76.86
2023-02-27T18:28:02.942Z,76.34
2023-02-27T18:30:30.938Z,76.62
2023-02-27T18:32:58.227Z,76.80
2023-02-27T18:35:24.992Z,76.89
2023-02-27T18:37:51.814Z,77.07
2023-02-27T18:40:18.645Z,77.38
2023-02-27T18:42:48.499Z,77.18
2023-02-27T18:45:15.104Z,77.36
2023-02-27T18:47:41.583Z,77.28
2023-02-27T18:50:08.597Z,77.72
2023-02-27T18:52:37.159Z,78.49
2023-02-27T18:55:04.078Z,78.84
2023-02-27T18:57:30.476Z,78.74
2023-02-27T18:59:56.871Z,79.25
2023-02-27T19:02:23.741Z,79.98
2023-02-27T19:04:50.166Z,79.90
2023-02-27T19:07:17.476Z,80.02
2023-02-27T19:09:44.554Z,80.36
2023-02-27T19:12:11.090Z,80.76
2023-02-27T19:14:40.637Z,80.79
2023-02-27T19:17:07.450Z,80.60
2023-02-27T19:19:33.859Z,81.34
2023-02-27T19:22:00.361Z,81.53
2023-02-27T19:24:26.990Z,81.63
2023-02-27T19:26:53.684Z,81.95
2023-02-27T19:29:20.489Z,81.98
2023-02-27T19:31:47.242Z,82.34
2023-02-27T19:34:14.867Z,82.67
2023-02-27T19:36:41.698Z,82.25
2023-02-27T19:39:08.355Z,82.29
2023-02-27T19:41:34.922Z,82.87
2023-02-27T19:44:01.486Z,82.79
2023-02-27T19:46:31.066Z,83.18
2023-02-27T19:49:01.711Z,83.34
2023-02-27T19:51:28.435Z,83.51
2023-02-27T19:53:55.048Z,83.41
2023-02-27T19:56:24.193Z,83.93
2023-02-27T19:58:51.814Z,84.26
2023-02-27T20:01:28.536Z,84.11
2023-02-27T20:03:56.138Z,84.10
2023-02-27T20:06:24.391Z,84.97
2023-02-27T20:08:51.844Z,84.89
2023-02-27T20:11:20.749Z,85.63
2023-02-27T20:13:48.321Z,84.94
2023-02-27T20:16:17.186Z,85.97
2023-02-27T20:18:43.917Z,86.10
2023-02-27T20:21:12.658Z,86.09
2023-02-27T20:23:41.469Z,86.17
2023-02-27T20:26:18.704Z,86.85
2023-02-27T20:28:46.651Z,86.68
2023-02-27T20:31:14.899Z,87.21
2023-02-27T20:33:42.237Z,87.11
2023-02-27T20:36:10.652Z,87.18
2023-02-27T20:38:40.395Z,87.34
2023-02-27T20:41:08.802Z,87.62
2023-02-27T20:43:37.985Z,86.93
2023-02-27T20:46:06.409Z,87.27
2023-02-27T20:48:33.408Z,87.22
2023-02-27T20:51:12.542Z,87.52
2023-02-27T20:53:41.061Z,87.91
2023-02-27T20:56:08.805Z,87.83
2023-02-27T20:58:35.515Z,88.49
2023-02-27T21:01:05.325Z,88.74
2023-02-27T21:03:38.508Z,88.46
2023-02-27T21:06:07.193Z,88.86
2023-02-27T21:08:38.752Z,89.05
2023-02-27T21:11:10.620Z,88.98
2023-02-27T21:13:37.373Z,89.42
2023-02-27T21:16:06.190Z,89.49
2023-02-27T21:18:32.879Z,88.92
2023-02-27T21:21:08.735Z,89.48
2023-02-27T21:23:41.122Z,89.48
2023-02-27T21:26:09.364Z,89.55
2023-02-27T21:28:46.679Z,89.27
2023-02-27T21:31:17.871Z,90.00
2023-02-27T21:33:44.657Z,90.36
2023-02-27T21:36:12.030Z,89.97
2023-02-27T21:38:39.338Z,90.33
2023-02-27T21:41:11.460Z,90.26
2023-02-27T21:43:40.312Z,90.68
2023-02-27T21:46:12.060Z,91.14
2023-02-27T21:48:39.263Z,91.39
2023-02-27T21:51:06.742Z,90.96
2023-02-27T21:53:33.512Z,91.96
2023-02-27T21:56:08.975Z,91.66
2023-02-27T21:58:36.122Z,91.14
2023-02-27T22:01:03.294Z,91.77
2023-02-27T22:03:34.282Z,91.67
2023-02-27T22:06:02.165Z,91.88
2023-02-27T22:08:29.065Z,92.22
2023-02-27T22:11:00.071Z,91.77
2023-02-27T22:13:27.528Z,92.07
2023-02-27T22:15:54.452Z,92.48
2023-02-27T22:18:20.980Z,92.06
2023-02-27T22:20:47.928Z,92.29
2023-02-27T22:23:14.597Z,92.38
2023-02-27T22:25:41.264Z,92.38
2023-02-27T22:28:08.065Z,92.52
2023-02-27T22:30:34.666Z,93.06
2023-02-27T22:33:01.069Z,92.89
2023-02-27T22:35:27.555Z,92.94
2023-02-27T22:37:54.025Z,93.28
2023-02-27T22:40:21.192Z,93.32
2023-02-27T22:42:48.056Z,93.92
2023-02-27T22:45:15.067Z,94.15
2023-02-27T22:47:41.539Z,93.89
2023-02-27T22:50:08.955Z,94.63
2023-02-27T22:52:36.439Z,94.48
2023-02-27T22:55:03.567Z,94.17
2023-02-27T22:57:29.990Z,94.28
2023-02-27T22:59:56.409Z,94.18
2023-02-27T23:02:23.275Z,94.35
2023-02-27T23:04:49.701Z,94.32
2023-02-27T23:07:16.493Z,94.51
2023-02-27T23:09:43.835Z,94.45
2023-02-27T23:12:10.327Z,94.75
2023-02-27T23:14:36.768Z,94.34
2023-02-27T23:17:03.201Z,94.77
2023-02-27T23:19:29.749Z,94.49
2023-02-27T23:21:56.169Z,94.58
2023-02-27T23:24:22.715Z,94.89
2023-02-27T23:26:52.486Z,94.81
2023-02-27T23:29:19.352Z,95.02
2023-02-27T23:31:46.016Z,94.92
2023-02-27T23:34:12.627Z,95.58
2023-02-27T23:36:41.605Z,95.40
2023-02-27T23:39:09.363Z,95.86
2023-02-27T23:41:35.899Z,96.10
2023-02-27T23:44:22.510Z,95.95
2023-02-27T23:46:49.707Z,96.01
2023-02-27T23:49:16.099Z,95.92
2023-02-27T23:51:42.572Z,95.81
2023-02-27T23:54:09.072Z,95.58
2023-02-27T23:56:35.500Z,95.68
2023-02-27T23:59:05.333Z,95.30
